Time;durP1;ratioP1;P1;durP2;ratioP2;P2;SDS_P1;SDS_P2;PMS_P1;PMS_P2;Temp;Humidity;BMP_temperature;BMP_pressure;BME280_temperature;BME280_humidity;BME280_pressure;Samples;Min_cycle;Max_cycle;Signal;HPM_P1;HPM_P2
2023/11/05 07:04:02;;;;;;;2.33;0.60;;;;;;;8.46;91.72;93055.03;2106472;27;20574;-64
2023/11/05 07:07:23;;;;;;;1.30;0.50;;;;;;;8.71;90.43;93056.16;2090727;28;20546;-65
2023/11/05 07:08:28;;;;;;;1.70;0.60;;;;;;;8.79;89.74;93071.03;2084930;27;20615;-64
2023/11/05 07:14:44;;;;;;;3.22;0.70;;;;;;;8.76;90.50;93069.53;2076167;28;20549;-64
2023/11/05 07:15:46;;;;;;;2.33;0.70;;;;;;;9.09;89.73;93063.84;2076323;28;20525;-64
2023/11/05 07:16:47;;;;;;;1.90;0.70;;;;;;;9.27;88.42;93067.31;2074468;28;20240;-64
2023/11/05 07:17:50;;;;;;;1.00;0.50;;;;;;;9.18;88.61;93063.00;2071462;28;20228;-65
2023/11/05 07:18:52;;;;;;;2.63;0.60;;;;;;;9.02;89.47;93071.44;2065271;28;20194;-65
2023/11/05 07:19:53;;;;;;;3.08;0.60;;;;;;;8.73;90.80;93067.22;2063048;28;20217;-65
2023/11/05 07:20:55;;;;;;;2.10;0.60;;;;;;;8.62;92.52;93057.84;2064179;28;20229;-65
2023/11/05 07:21:56;;;;;;;1.20;0.60;;;;;;;8.59;92.24;93063.31;2063229;28;20830;-67
2023/11/05 07:22:59;;;;;;;2.80;0.57;;;;;;;8.53;92.38;93063.88;2064688;28;20218;-64
2023/11/05 07:24:00;;;;;;;3.00;0.60;;;;;;;8.58;92.93;93071.25;2068233;28;20278;-65
2023/11/05 07:25:05;;;;;;;3.72;0.70;;;;;;;8.79;91.65;93081.44;2066014;28;20768;-64
2023/11/05 07:26:07;;;;;;;1.00;0.50;;;;;;;8.77;91.74;93072.94;2065868;28;20598;-65
2023/11/05 07:27:08;;;;;;;1.55;0.57;;;;;;;8.79;92.08;93076.22;2063864;28;20197;-65
2023/11/05 07:28:10;;;;;;;2.35;0.60;;;;;;;8.98;91.71;93073.50;2065751;28;20213;-65
2023/11/05 07:29:12;;;;;;;1.33;0.60;;;;;;;9.25;90.64;93079.63;2063973;28;20865;-65
2023/11/05 07:30:16;;;;;;;1.33;0.60;;;;;;;9.61;87.89;93071.00;2064027;28;20190;-72
2023/11/05 07:31:21;;;;;;;1.02;0.50;;;;;;;9.85;87.31;93080.81;2065560;28;20244;-64
2023/11/05 07:32:22;;;;;;;1.10;0.50;;;;;;;9.74;86.81;93086.28;2065716;28;20241;-65
2023/11/05 07:33:24;;;;;;;1.20;0.60;;;;;;;9.55;87.89;93085.47;2065061;28;20268;-66
2023/11/05 07:34:26;;;;;;;3.13;0.57;;;;;;;9.30;89.02;93074.00;2065750;28;20256;-65
2023/11/05 07:35:27;;;;;;;1.75;0.60;;;;;;;9.29;89.46;93098.41;2067044;28;20664;-65
2023/11/05 07:36:29;;;;;;;1.65;0.63;;;;;;;9.31;88.87;93088.66;2067254;28;20197;-65
2023/11/05 07:37:30;;;;;;;4.20;0.88;;;;;;;9.68;87.61;93092.91;2064973;28;20668;-66
2023/11/05 07:38:31;;;;;;;1.08;0.60;;;;;;;9.96;86.11;93092.81;2066324;28;20190;-72
2023/11/05 07:39:33;;;;;;;4.60;0.70;;;;;;;10.34;84.83;93082.94;2066525;28;20194;-71
2023/11/05 07:40:35;;;;;;;2.08;0.70;;;;;;;10.68;82.89;93110.88;2066572;28;20214;-71
2023/11/05 07:41:37;;;;;;;1.05;0.50;;;;;;;10.73;82.24;93085.13;2065097;28;20186;-72
2023/11/05 07:42:41;;;;;;;1.20;0.70;;;;;;;10.96;81.42;93092.41;2065924;28;20245;-74
2023/11/05 07:43:42;;;;;;;3.03;0.70;;;;;;;11.02;80.34;93102.22;2065528;28;20206;-73
2023/11/05 07:44:44;;;;;;;2.00;0.70;;;;;;;10.94;80.61;93092.56;2061227;28;20604;-75
2023/11/05 07:45:45;;;;;;;1.33;0.70;;;;;;;10.92;80.83;93098.94;2066417;28;20194;-74
2023/11/05 07:46:47;;;;;;;2.83;0.77;;;;;;;11.04;80.57;93100.25;2066494;28;20187;-74
2023/11/05 07:47:49;;;;;;;3.35;0.80;;;;;;;11.16;79.93;93116.47;2064568;28;20259;-74
2023/11/05 07:48:51;;;;;;;4.25;1.02;;;;;;;11.39;78.86;93108.06;2066995;28;20302;-74
2023/11/05 07:49:53;;;;;;;1.25;0.63;;;;;;;11.41;78.68;93116.53;2066508;28;20213;-74
2023/11/05 07:50:54;;;;;;;1.60;0.63;;;;;;;11.40;78.04;93107.88;2066741;28;20202;-74
2023/11/05 07:51:56;;;;;;;5.97;3.60;;;;;;;11.61;77.49;93106.63;2065000;28;20197;-72
2023/11/05 07:52:58;;;;;;;1.98;0.60;;;;;;;11.67;76.94;93105.13;2065559;28;20243;-73
2023/11/05 07:54:02;;;;;;;2.25;0.60;;;;;;;11.43;76.98;93106.75;2065234;28;20316;-72
2023/11/05 07:55:12;;;;;;;2.15;0.70;;;;;;;10.74;80.01;93115.50;2066253;28;20331;-74
2023/11/05 07:56:14;;;;;;;2.58;0.60;;;;;;;10.80;80.45;93118.44;2066470;28;20277;-64
2023/11/05 07:57:16;;;;;;;1.10;0.50;;;;;;;10.99;79.82;93117.38;2067213;28;20191;-64
2023/11/05 07:58:17;;;;;;;1.30;0.60;;;;;;;10.91;79.58;93134.63;2063304;28;20217;-66
2023/11/05 07:59:20;;;;;;;1.30;0.60;;;;;;;10.54;80.88;93127.94;2065936;28;20234;-64
2023/11/05 08:00:21;;;;;;;3.38;0.80;;;;;;;10.11;82.83;93142.59;2061072;28;20723;-64
2023/11/05 08:01:24;;;;;;;1.00;0.50;;;;;;;9.79;83.89;93134.34;2068184;28;20853;-64
2023/11/05 08:02:26;;;;;;;2.67;0.60;;;;;;;9.46;84.97;93130.66;2065429;28;20190;-63
2023/11/05 08:03:27;;;;;;;1.58;0.60;;;;;;;9.51;85.43;93130.19;2063142;28;20218;-63
2023/11/05 08:04:29;;;;;;;1.83;0.70;;;;;;;9.94;84.89;93145.09;2066617;28;20222;-64
2023/11/05 08:05:31;;;;;;;1.48;0.60;;;;;;;10.26;83.53;93148.09;2065306;28;20295;-64
2023/11/05 08:06:32;;;;;;;1.40;0.60;;;;;;;10.11;83.75;93153.03;2064370;28;20867;-64
2023/11/05 08:07:34;;;;;;;1.33;0.50;;;;;;;10.31;82.81;93151.06;2065382;28;20187;-64
2023/11/05 08:08:36;;;;;;;2.95;0.60;;;;;;;10.38;82.64;93157.31;2064771;28;20281;-64
2023/11/05 08:09:37;;;;;;;1.40;0.60;;;;;;;9.88;84.27;93155.25;2064119;28;20199;-64
2023/11/05 08:10:39;;;;;;;1.73;0.60;;;;;;;9.72;85.00;93153.34;2064062;28;20187;-64
2023/11/05 08:11:43;;;;;;;1.58;0.70;;;;;;;9.67;85.88;93173.81;2063344;28;20191;-64
2023/11/05 08:12:44;;;;;;;2.65;0.80;;;;;;;9.41;87.10;93172.75;2063949;28;20735;-65
2023/11/05 08:13:46;;;;;;;2.40;0.80;;;;;;;9.31;88.12;93171.97;2065497;28;20276;-64
2023/11/05 08:14:47;;;;;;;1.30;0.70;;;;;;;9.30;88.96;93173.75;2065649;28;20754;-63
2023/11/05 08:15:49;;;;;;;2.05;0.73;;;;;;;9.35;88.79;93170.72;2065195;28;20403;-64
2023/11/05 08:16:50;;;;;;;1.98;0.70;;;;;;;9.25;88.95;93175.97;2065366;28;20194;-64
2023/11/05 08:17:52;;;;;;;1.70;0.80;;;;;;;9.06;89.91;93184.69;2064971;28;20227;-64
2023/11/05 08:18:53;;;;;;;1.33;0.50;;;;;;;8.95;90.44;93192.69;2059381;28;20199;-64
2023/11/05 08:19:55;;;;;;;4.95;0.90;;;;;;;9.11;90.33;93186.88;2067793;28;20193;-64
2023/11/05 08:20:56;;;;;;;1.75;0.60;;;;;;;9.51;89.44;93192.69;2064699;28;20258;-64
2023/11/05 08:21:58;;;;;;;4.32;0.80;;;;;;;9.62;88.53;93187.28;2064913;28;20534;-64
2023/11/05 08:22:59;;;;;;;1.77;0.60;;;;;;;9.96;87.18;93208.28;2065490;28;20230;-65
2023/11/05 08:24:01;;;;;;;1.20;0.57;;;;;;;9.71;87.22;93182.97;2065664;28;20638;-62
2023/11/05 08:25:03;;;;;;;1.23;0.57;;;;;;;9.48;88.21;93199.00;2063360;28;20201;-62
2023/11/05 08:26:04;;;;;;;2.17;0.80;;;;;;;10.51;85.57;93190.81;2057807;28;20202;-62
2023/11/05 08:27:06;;;;;;;1.42;0.63;;;;;;;10.81;83.23;93193.97;2062867;28;20207;-63
2023/11/05 08:28:09;;;;;;;6.40;0.85;;;;;;;11.58;81.33;93186.16;2062266;28;20705;-63
2023/11/05 08:29:25;;;;;;;3.60;0.70;;;;;;;11.58;81.33;93186.16;2060220;28;20552;-63
2023/11/05 08:30:27;;;;;;;1.13;0.60;;;;;;;12.46;76.20;93191.03;2053609;28;20193;-63
2023/11/05 08:31:29;;;;;;;2.53;0.70;;;;;;;12.47;76.13;93187.41;2060125;28;20189;-63
2023/11/05 08:32:31;;;;;;;3.05;0.70;;;;;;;12.49;76.09;93198.53;2060231;28;20194;-63
2023/11/05 08:33:32;;;;;;;1.45;0.60;;;;;;;12.87;74.74;93196.22;2062175;28;20304;-64
2023/11/05 08:34:34;;;;;;;1.52;0.65;;;;;;;12.73;74.98;93195.91;2058279;28;20202;-64
2023/11/05 08:35:35;;;;;;;2.63;0.60;;;;;;;12.74;74.03;93194.91;2061123;28;20194;-63
2023/11/05 08:36:37;;;;;;;2.42;0.70;;;;;;;12.20;76.09;93189.38;2061478;28;20199;-63
2023/11/05 08:37:38;;;;;;;2.17;0.65;;;;;;;12.70;75.51;93193.63;2058322;28;20297;-63
2023/11/05 08:38:40;;;;;;;1.73;0.70;;;;;;;12.84;74.66;93202.59;2059464;28;20199;-63
2023/11/05 08:39:42;;;;;;;4.35;0.70;;;;;;;12.57;73.52;93214.25;2060229;28;20225;-63
2023/11/05 08:40:45;;;;;;;1.40;0.57;;;;;;;12.04;75.75;93192.81;2059955;28;20716;-63
2023/11/05 08:41:46;;;;;;;1.50;0.60;;;;;;;12.78;74.80;93207.69;2060724;28;20285;-63
2023/11/05 08:42:48;;;;;;;1.90;1.00;;;;;;;13.17;73.01;93220.84;2058140;28;20191;-63
2023/11/05 08:43:50;;;;;;;2.30;0.80;;;;;;;13.07;72.79;93209.75;2059935;28;20198;-63
2023/11/05 08:44:52;;;;;;;1.08;0.50;;;;;;;13.11;73.01;93211.03;2059409;28;20195;-63
2023/11/05 08:45:53;;;;;;;1.77;0.70;;;;;;;12.73;74.10;93224.72;2059228;28;20650;-63
2023/11/05 08:46:55;;;;;;;2.35;0.95;;;;;;;12.10;76.00;93239.25;2060127;28;20200;-65
2023/11/05 08:47:56;;;;;;;7.22;2.88;;;;;;;11.53;77.60;93224.16;2059363;28;20227;-63
2023/11/05 08:48:58;;;;;;;4.18;1.85;;;;;;;11.56;78.48;93216.81;2060185;28;20228;-63
2023/11/05 08:50:01;;;;;;;1.20;0.60;;;;;;;12.17;77.55;93224.53;2060492;28;20293;-63
2023/11/05 08:51:03;;;;;;;1.83;0.80;;;;;;;12.66;76.20;93226.34;2059195;28;20207;-63
2023/11/05 08:52:05;;;;;;;1.10;0.57;;;;;;;13.03;74.35;93216.31;2059561;28;20203;-63
2023/11/05 08:53:07;;;;;;;1.42;0.60;;;;;;;13.03;74.35;93216.31;2056728;28;20227;-64
2023/11/05 08:54:09;;;;;;;1.63;0.60;;;;;;;13.13;71.90;93214.34;2058396;28;20749;-63
2023/11/05 08:55:12;;;;;;;2.55;0.75;;;;;;;12.92;73.52;93221.91;2057933;28;20280;-63
2023/11/05 08:56:14;;;;;;;2.65;0.70;;;;;;;13.32;71.85;93228.84;2059462;28;20250;-63
2023/11/05 08:57:15;;;;;;;1.27;0.60;;;;;;;13.48;70.99;93235.84;2060102;28;20199;-64
2023/11/05 08:58:17;;;;;;;1.50;0.60;;;;;;;13.35;71.40;93230.31;2058906;28;20329;-63
2023/11/05 08:59:19;;;;;;;2.08;0.60;;;;;;;12.84;72.73;93239.25;2058871;28;20282;-64
2023/11/05 09:00:20;;;;;;;1.30;0.57;;;;;;;12.85;72.63;93238.28;2060542;28;20186;-63
2023/11/05 09:01:21;;;;;;;1.25;0.60;;;;;;;13.53;70.89;93248.47;2059897;28;20197;-64
2023/11/05 09:02:23;;;;;;;1.20;0.60;;;;;;;13.07;71.43;93251.66;2058776;28;20590;-63
2023/11/05 09:03:25;;;;;;;1.10;0.50;;;;;;;12.92;72.42;93258.56;2059034;28;20226;-63
2023/11/05 09:04:28;;;;;;;1.52;0.60;;;;;;;13.66;70.81;93261.03;2058566;28;20658;-63
2023/11/05 09:05:30;;;;;;;1.30;0.50;;;;;;;13.22;71.70;93263.09;2060257;28;20191;-64
2023/11/05 09:06:31;;;;;;;1.83;0.70;;;;;;;13.50;71.43;93254.06;2059437;28;20739;-63
2023/11/05 09:07:33;;;;;;;1.40;0.60;;;;;;;13.43;70.06;93251.25;2058467;28;20197;-63
2023/11/05 09:08:38;;;;;;;12.98;4.32;;;;;;;12.10;73.71;93262.78;2058943;28;20719;-63
2023/11/05 09:09:39;;;;;;;37.67;11.07;;;;;;;12.69;73.29;93265.28;2063361;28;20194;-64
2023/11/05 09:10:41;;;;;;;10.90;3.72;;;;;;;12.76;72.99;93275.94;2062796;28;20582;-63
2023/11/05 09:11:42;;;;;;;7.13;2.65;;;;;;;12.93;71.79;93276.72;2060137;28;20218;-63
2023/11/05 09:12:44;;;;;;;2.00;0.75;;;;;;;12.68;73.18;93309.94;2060560;28;20256;-63
2023/11/05 09:13:45;;;;;;;2.15;0.70;;;;;;;11.86;74.76;93297.47;2060237;28;20195;-63
2023/11/05 09:14:47;;;;;;;1.58;0.75;;;;;;;11.72;76.62;93304.94;2060936;28;20230;-64
2023/11/05 09:15:50;;;;;;;5.13;0.60;;;;;;;11.47;78.47;93297.97;2061213;28;20203;-63
2023/11/05 09:16:51;;;;;;;5.22;0.70;;;;;;;11.16;79.16;93307.09;2058145;28;20191;-64
2023/11/05 09:17:53;;;;;;;3.88;0.88;;;;;;;11.11;80.94;93309.34;2057293;28;20342;-64
2023/11/05 09:18:55;;;;;;;2.63;0.88;;;;;;;10.99;81.31;93307.97;2058455;28;20206;-63
2023/11/05 09:19:57;;;;;;;1.95;0.60;;;;;;;11.28;80.87;93303.25;2058737;28;20204;-64
2023/11/05 09:20:59;;;;;;;1.40;0.70;;;;;;;11.54;80.91;93309.41;2055552;28;20212;-63
2023/11/05 09:22:01;;;;;;;1.50;0.60;;;;;;;11.31;81.10;93316.97;2059549;28;20205;-64
2023/11/05 09:23:02;;;;;;;1.45;0.63;;;;;;;12.48;77.39;93304.19;2059459;28;20232;-63
2023/11/05 09:24:05;;;;;;;1.98;0.68;;;;;;;12.82;75.31;93327.59;2056256;28;20197;-63
2023/11/05 09:25:07;;;;;;;1.25;0.60;;;;;;;13.02;73.67;93317.63;2056568;28;20751;-64
2023/11/05 09:26:09;;;;;;;1.48;0.70;;;;;;;13.90;71.47;93314.38;2059678;28;20201;-64
2023/11/05 09:27:10;;;;;;;2.35;0.70;;;;;;;13.09;73.02;93319.59;2059349;28;20202;-64
2023/11/05 09:28:13;;;;;;;1.65;0.70;;;;;;;13.04;73.40;93307.00;2057415;28;20284;-63
2023/11/05 09:29:15;;;;;;;1.10;0.50;;;;;;;13.07;73.04;93351.19;2058944;28;20233;-64
2023/11/05 09:30:16;;;;;;;1.75;0.60;;;;;;;12.29;74.86;93321.00;2059333;28;20202;-63
2023/11/05 09:31:18;;;;;;;1.52;0.60;;;;;;;11.97;76.77;93333.00;2058718;28;20203;-62
2023/11/05 09:32:19;;;;;;;3.45;0.60;;;;;;;12.22;76.60;93321.63;2058171;28;20241;-64
2023/11/05 09:33:21;;;;;;;3.88;1.38;;;;;;;12.33;77.32;93324.94;2057774;28;20232;-63
2023/11/05 09:34:23;;;;;;;38.60;12.77;;;;;;;12.28;76.61;93338.50;2058490;28;20662;-63
2023/11/05 09:35:25;;;;;;;38.85;12.48;;;;;;;12.98;75.77;93333.84;2057177;28;20209;-63
2023/11/05 09:36:26;;;;;;;39.85;11.82;;;;;;;13.14;74.20;93333.84;2057219;28;20186;-64
2023/11/05 09:37:29;;;;;;;14.18;3.85;;;;;;;12.57;74.71;93351.16;2058330;28;20201;-64
2023/11/05 09:38:33;;;;;;;7.32;2.33;;;;;;;11.74;77.00;93336.97;2059200;28;20214;-63
2023/11/05 09:39:34;;;;;;;16.88;4.78;;;;;;;11.11;78.55;93353.75;2059573;28;20229;-64
2023/11/05 09:40:36;;;;;;;41.80;15.98;;;;;;;10.84;82.50;93372.94;2058816;28;20835;-63
2023/11/05 09:41:38;;;;;;;26.65;10.63;;;;;;;10.61;83.55;93360.34;2059920;28;20220;-64
2023/11/05 09:42:49;;;;;;;68.25;22.70;;;;;;;10.37;84.70;93366.94;2059595;28;20294;-64
2023/11/05 09:43:52;;;;;;;29.30;8.45;;;;;;;10.26;85.30;93367.16;2059510;28;20647;-63
2023/11/05 09:44:53;;;;;;;9.48;3.78;;;;;;;10.20;85.71;93365.94;2057425;28;20680;-64
2023/11/05 09:46:00;;;;;;;6.20;2.10;;;;;;;10.11;86.34;93372.84;2057990;28;20639;-63
2023/11/05 09:47:02;;;;;;;9.88;4.25;;;;;;;10.73;85.62;93374.81;2057728;28;20546;-73
2023/11/05 09:48:09;;;;;;;14.07;6.07;;;;;;;11.10;82.24;93370.38;2056938;28;20265;-74
2023/11/05 09:49:12;;;;;;;16.42;7.20;;;;;;;11.33;81.49;93370.69;2058693;28;20253;-73
2023/11/05 09:50:14;;;;;;;22.10;8.93;;;;;;;11.48;81.89;93384.03;2060337;28;20195;-73
2023/11/05 09:51:15;;;;;;;11.45;5.32;;;;;;;11.13;83.49;93388.34;2057893;28;20249;-73
2023/11/05 09:52:17;;;;;;;7.90;3.88;;;;;;;10.95;82.26;93402.22;2059812;28;20199;-73
2023/11/05 09:53:19;;;;;;;8.60;3.90;;;;;;;10.72;83.28;93401.06;2059476;28;20231;-74
2023/11/05 09:54:20;;;;;;;6.70;2.22;;;;;;;10.65;82.73;93403.41;2057736;28;20647;-74
2023/11/05 09:55:22;;;;;;;7.80;4.03;;;;;;;10.54;84.21;93412.28;2058824;28;20289;-74
2023/11/05 09:56:25;;;;;;;18.67;8.18;;;;;;;11.01;84.56;93410.44;2059039;28;20195;-75
2023/11/05 09:57:26;;;;;;;13.48;6.68;;;;;;;11.14;83.50;93407.47;2058887;28;20211;-75
2023/11/05 09:58:29;;;;;;;4.35;2.45;;;;;;;10.78;83.44;93416.94;2059190;28;20219;-75
2023/11/05 09:59:30;;;;;;;4.10;1.95;;;;;;;10.60;85.50;93418.69;2059538;28;20282;-75
2023/11/05 10:00:33;;;;;;;3.60;1.50;;;;;;;10.51;86.25;93417.78;2059684;28;20651;-75
2023/11/05 10:01:35;;;;;;;4.75;2.78;;;;;;;10.54;86.49;93419.28;2059871;28;21115;-75
2023/11/05 10:03:03;;;;;;;2.55;1.10;;;;;;;10.45;86.07;93418.41;2060182;28;20217;-75
2023/11/05 10:04:08;;;;;;;3.15;1.27;;;;;;;10.25;85.53;93412.44;2059193;28;20202;-75
2023/11/05 10:05:10;;;;;;;1.27;0.70;;;;;;;10.14;87.14;93416.03;2059447;28;20602;-75
2023/11/05 10:06:16;;;;;;;3.40;0.70;;;;;;;9.93;85.83;93426.72;2061181;28;20295;-75
2023/11/05 10:07:17;;;;;;;1.85;0.60;;;;;;;9.80;86.71;93429.63;2059603;28;20559;-74
2023/11/05 10:08:22;;;;;;;4.60;1.00;;;;;;;9.91;88.24;93439.88;2058559;28;20238;-75
2023/11/05 10:09:24;;;;;;;1.42;0.70;;;;;;;10.01;88.28;93441.63;2059768;28;20198;-73
2023/11/05 10:10:26;;;;;;;2.85;0.75;;;;;;;9.71;88.99;93438.28;2057688;28;20570;-72
2023/11/05 10:11:29;;;;;;;15.10;7.38;;;;;;;9.59;90.16;93456.69;2057537;28;20225;-74
2023/11/05 10:12:30;;;;;;;10.32;5.07;;;;;;;9.55;92.00;93442.31;2059581;28;20245;-76
2023/11/05 10:13:32;;;;;;;11.05;5.35;;;;;;;9.52;92.59;93449.59;2057833;28;20760;-74
2023/11/05 10:14:34;;;;;;;1.30;0.70;;;;;;;9.42;92.43;93460.84;2058106;28;20233;-74
2023/11/05 10:15:36;;;;;;;3.65;0.70;;;;;;;9.37;92.78;93463.06;2064284;28;20205;-73
2023/11/05 10:16:38;;;;;;;2.30;0.80;;;;;;;9.37;94.08;93476.06;2050752;28;20195;-72
2023/11/05 10:17:40;;;;;;;1.45;0.70;;;;;;;9.22;93.54;93467.00;2056293;28;20221;-69
2023/11/05 10:18:43;;;;;;;1.55;0.85;;;;;;;9.11;95.18;93481.00;2060160;28;20198;-69
2023/11/05 10:19:45;;;;;;;2.00;1.00;;;;;;;8.99;96.61;93478.53;2060042;28;20195;-69
2023/11/05 10:20:52;;;;;;;4.25;1.13;;;;;;;8.89;97.63;93484.69;2060597;28;20255;-69
2023/11/05 10:21:54;;;;;;;2.15;0.80;;;;;;;8.79;97.49;93487.28;2060512;28;20741;-70
2023/11/05 10:23:09;;;;;;;1.70;0.90;;;;;;;8.70;98.37;93493.28;2058616;28;20253;-70
2023/11/05 10:24:11;;;;;;;1.30;0.90;;;;;;;8.59;99.21;93491.63;2059490;28;20252;-69
2023/11/05 10:25:26;;;;;;;3.70;0.80;;;;;;;8.52;99.59;93491.34;2059519;28;20318;-66
2023/11/05 10:26:29;;;;;;;1.92;1.00;;;;;;;8.46;100.00;93494.47;2059521;28;20248;-65
2023/11/05 10:27:35;;;;;;;2.20;1.00;;;;;;;8.46;100.00;93486.66;2059430;28;20714;-66
2023/11/05 10:28:37;;;;;;;2.80;1.23;;;;;;;8.40;100.00;93482.78;2062689;28;20194;-65
2023/11/05 10:29:40;;;;;;;4.35;1.05;;;;;;;8.46;100.00;93497.06;2061520;28;20217;-64
2023/11/05 10:30:45;;;;;;;2.00;0.70;;;;;;;8.50;100.00;93488.03;2057250;28;20187;-64
2023/11/05 10:31:48;;;;;;;2.20;0.70;;;;;;;8.59;100.00;93483.81;2058143;28;20198;-65
2023/11/05 10:32:53;;;;;;;2.75;0.80;;;;;;;8.59;100.00;93486.44;2061258;28;20820;-65
2023/11/05 10:33:56;;;;;;;1.83;0.60;;;;;;;8.61;100.00;93489.72;2060032;28;20202;-65
2023/11/05 10:35:00;;;;;;;1.75;0.70;;;;;;;8.58;100.00;93487.38;2057974;28;20835;-65
2023/11/05 10:36:02;;;;;;;2.50;0.80;;;;;;;9.37;100.00;93483.88;2058139;28;20207;-65
2023/11/05 10:37:05;;;;;;;1.52;0.77;;;;;;;9.91;96.31;93480.75;2058072;28;20198;-65
2023/11/05 10:38:10;;;;;;;2.40;0.77;;;;;;;10.09;93.70;93486.03;2057305;28;20223;-65
2023/11/05 10:39:12;;;;;;;1.88;0.93;;;;;;;10.01;93.45;93488.56;2060499;28;20621;-65
2023/11/05 10:40:16;;;;;;;2.45;0.90;;;;;;;10.89;90.09;93488.16;2058800;28;20696;-64
2023/11/05 10:41:19;;;;;;;2.85;0.68;;;;;;;10.64;88.71;93476.63;2057401;28;20262;-64
2023/11/05 10:42:21;;;;;;;1.70;0.70;;;;;;;9.78;91.94;93494.09;2059539;28;20221;-64
2023/11/05 10:43:25;;;;;;;1.00;0.60;;;;;;;9.42;95.21;93510.34;2058777;28;20233;-63
2023/11/05 10:44:28;;;;;;;2.55;0.93;;;;;;;9.12;97.04;93503.47;2056588;28;20230;-65
2023/11/05 10:45:31;;;;;;;1.98;0.70;;;;;;;8.95;98.64;93507.56;2062620;28;20198;-65
2023/11/05 10:46:34;;;;;;;1.45;0.70;;;;;;;8.81;99.66;93509.59;2061077;28;20183;-64
2023/11/05 10:47:36;;;;;;;2.10;0.88;;;;;;;8.79;100.00;93516.72;2058204;28;20198;-65
2023/11/05 10:48:37;;;;;;;2.58;0.93;;;;;;;8.73;100.00;93527.66;2058445;28;20721;-64
2023/11/05 10:49:40;;;;;;;1.20;0.60;;;;;;;8.67;100.00;93525.59;2058243;28;20218;-64
2023/11/05 10:50:43;;;;;;;1.40;0.70;;;;;;;8.65;100.00;93522.31;2062060;28;20191;-64
2023/11/05 10:51:44;;;;;;;1.58;0.70;;;;;;;8.63;100.00;93529.41;2062637;28;21060;-65
2023/11/05 10:52:49;;;;;;;2.10;0.90;;;;;;;8.62;100.00;93519.97;2057366;28;20201;-65
2023/11/05 10:53:55;;;;;;;3.78;0.60;;;;;;;8.50;100.00;93533.06;2058657;28;20280;-65
2023/11/05 10:55:11;;;;;;;1.10;0.60;;;;;;;8.47;100.00;93529.94;2057719;28;20195;-65
2023/11/05 10:56:28;;;;;;;1.42;0.85;;;;;;;8.40;100.00;93526.16;2056038;28;20662;-64
2023/11/05 10:57:41;;;;;;;1.85;0.63;;;;;;;8.34;100.00;93541.34;2056994;28;20253;-66
2023/11/05 10:58:44;;;;;;;3.22;0.70;;;;;;;8.34;100.00;93537.91;2060207;28;20269;-65
2023/11/05 10:59:45;;;;;;;1.50;0.60;;;;;;;8.32;100.00;93538.03;2058428;28;20241;-65
2023/11/05 11:00:57;;;;;;;2.58;0.70;;;;;;;8.30;100.00;93539.97;2059152;28;20241;-65
2023/11/05 11:02:00;;;;;;;1.80;0.70;;;;;;;8.37;100.00;93548.06;2059048;28;20226;-64
2023/11/05 11:03:02;;;;;;;1.45;0.70;;;;;;;8.46;100.00;93541.28;2059272;28;20735;-65
2023/11/05 11:04:10;;;;;;;4.05;0.95;;;;;;;8.45;100.00;93555.19;2059604;28;20197;-65
2023/11/05 11:05:18;;;;;;;1.40;0.80;;;;;;;8.41;100.00;93561.63;2060137;28;20198;-65
2023/11/05 11:06:21;;;;;;;1.50;0.70;;;;;;;8.36;100.00;93561.19;2055978;28;20198;-64
2023/11/05 11:07:23;;;;;;;3.05;0.80;;;;;;;8.31;100.00;93562.38;2058546;28;20203;-64
2023/11/05 11:08:29;;;;;;;2.10;0.90;;;;;;;8.38;100.00;93561.88;2057997;28;20230;-65
2023/11/05 11:09:32;;;;;;;3.20;0.90;;;;;;;8.39;100.00;93574.72;2057869;28;20282;-65
2023/11/05 11:10:38;;;;;;;7.57;1.40;;;;;;;8.37;100.00;93563.66;2056873;28;20186;-65
2023/11/05 11:11:40;;;;;;;5.55;2.05;;;;;;;8.33;100.00;93568.28;2056948;28;20227;-65
2023/11/05 11:12:42;;;;;;;4.25;1.42;;;;;;;8.28;100.00;93573.06;2055270;28;20261;-65
2023/11/05 11:13:56;;;;;;;3.20;1.23;;;;;;;8.30;100.00;93572.91;2056899;28;20281;-65
2023/11/05 11:14:58;;;;;;;3.60;0.95;;;;;;;8.28;100.00;93580.84;2059675;28;20194;-66
2023/11/05 11:23:02;;;;;;;4.53;3.10;;;;;;;8.33;100.00;93585.69;2082548;28;20566;-66
2023/11/05 11:24:33;;;;;;;5.82;4.72;;;;;;;8.45;100.00;93579.41;2082681;28;20201;-66
2023/11/05 11:25:35;;;;;;;4.32;2.45;;;;;;;8.53;100.00;93584.00;2080348;28;20212;-66
2023/11/05 11:26:37;;;;;;;5.60;2.10;;;;;;;8.76;100.00;93591.59;2081067;28;20367;-66
2023/11/05 11:27:41;;;;;;;3.55;2.45;;;;;;;9.36;100.00;93594.22;2081710;28;20228;-66
2023/11/05 11:28:43;;;;;;;2.85;1.83;;;;;;;9.16;100.00;93585.53;2082056;28;20695;-65
2023/11/05 11:29:45;;;;;;;7.03;1.50;;;;;;;9.12;100.00;93605.00;2085028;28;20193;-66
2023/11/05 11:30:47;;;;;;;2.67;1.30;;;;;;;9.04;100.00;93600.47;2081431;28;20411;-66
2023/11/05 11:31:49;;;;;;;9.30;2.58;;;;;;;8.98;100.00;93612.22;2082245;28;20200;-65
2023/11/05 11:32:50;;;;;;;3.33;1.80;;;;;;;8.81;100.00;93613.69;2082125;28;20258;-66
2023/11/05 11:33:52;;;;;;;9.25;6.55;;;;;;;8.80;100.00;93616.44;2083374;28;20205;-65
2023/11/05 11:34:56;;;;;;;3.47;1.65;;;;;;;8.87;100.00;93608.91;2082391;28;20185;-65
2023/11/05 11:35:57;;;;;;;5.45;1.48;;;;;;;8.99;100.00;93616.47;2079902;28;20193;-65
2023/11/05 11:37:04;;;;;;;2.20;1.40;;;;;;;9.93;98.51;93609.16;2082627;28;20421;-66
2023/11/05 11:38:05;;;;;;;2.10;1.08;;;;;;;11.24;93.82;93612.72;2084189;28;20256;-66
2023/11/05 11:39:07;;;;;;;1.92;0.77;;;;;;;10.35;94.46;93607.97;2083908;28;20268;-67
2023/11/05 11:40:13;;;;;;;3.15;1.40;;;;;;;9.75;97.84;93620.28;2083474;28;20188;-65
2023/11/05 11:41:14;;;;;;;2.80;1.40;;;;;;;9.37;98.33;93621.91;2083046;28;20209;-65
2023/11/05 11:42:16;;;;;;;3.50;1.70;;;;;;;9.38;97.62;93618.31;2080604;28;20196;-65
2023/11/05 11:43:18;;;;;;;1.95;0.85;;;;;;;9.66;95.87;93608.06;2081417;28;21218;-65
2023/11/05 11:44:20;;;;;;;2.55;1.10;;;;;;;10.06;95.46;93617.50;2082048;28;20203;-65
2023/11/05 11:45:22;;;;;;;1.88;1.10;;;;;;;10.58;92.74;93614.53;2083693;28;20204;-65
2023/11/05 11:46:23;;;;;;;3.40;1.30;;;;;;;10.13;94.33;93622.97;2081238;28;20197;-65
2023/11/05 11:47:25;;;;;;;1.45;0.90;;;;;;;9.68;93.49;93626.19;2081476;28;20204;-65
2023/11/05 11:48:27;;;;;;;2.08;1.23;;;;;;;9.83;94.66;93627.41;2080776;28;20271;-65
2023/11/05 11:49:29;;;;;;;1.45;0.88;;;;;;;9.93;94.91;93625.63;2082094;28;20201;-65
2023/11/05 11:50:30;;;;;;;1.80;0.93;;;;;;;9.72;95.29;93635.38;2081353;28;20193;-65
2023/11/05 11:51:35;;;;;;;4.65;2.92;;;;;;;9.52;96.11;93634.53;2083699;28;20200;-66
2023/11/05 11:52:50;;;;;;;3.22;2.08;;;;;;;9.52;96.13;93637.94;2081204;28;20203;-65
2023/11/05 11:53:52;;;;;;;3.30;1.75;;;;;;;9.63;95.42;93637.00;2082255;28;20799;-64
2023/11/05 11:54:53;;;;;;;3.95;2.47;;;;;;;9.58;95.09;93647.00;2082007;28;20193;-65
2023/11/05 11:55:57;;;;;;;2.50;1.40;;;;;;;9.54;96.18;93651.66;2082330;28;20193;-65
2023/11/05 11:56:59;;;;;;;1.85;1.02;;;;;;;9.41;96.39;93653.72;2082122;28;20248;-65
2023/11/05 11:58:00;;;;;;;5.72;2.78;;;;;;;9.32;95.87;93653.53;2080720;28;20307;-65
2023/11/05 11:59:03;;;;;;;2.20;1.20;;;;;;;9.32;97.15;93663.16;2082125;28;20220;-65
2023/11/05 12:00:10;;;;;;;3.58;1.23;;;;;;;9.33;97.62;93662.16;2081067;28;20185;-65
2023/11/05 12:01:15;;;;;;;2.83;1.15;;;;;;;9.38;97.66;93654.78;2081237;28;20192;-66
2023/11/05 12:02:18;;;;;;;4.03;1.05;;;;;;;9.47;97.75;93655.75;2082375;28;20418;-66
2023/11/05 12:03:20;;;;;;;2.20;0.80;;;;;;;9.44;96.60;93656.84;2077449;28;20217;-67
2023/11/05 12:04:27;;;;;;;1.40;0.70;;;;;;;9.43;96.06;93655.22;2081845;28;20197;-66
2023/11/05 12:05:28;;;;;;;1.65;0.75;;;;;;;9.46;95.90;93660.16;2080416;28;20193;-66
2023/11/05 12:06:30;;;;;;;1.50;0.70;;;;;;;9.48;95.42;93660.00;2081811;28;20197;-66
2023/11/05 12:07:45;;;;;;;1.10;0.60;;;;;;;9.54;96.01;93661.28;2081385;28;20274;-66
2023/11/05 12:08:49;;;;;;;1.52;0.70;;;;;;;9.54;96.37;93664.69;2081653;28;20227;-66
2023/11/05 12:09:56;;;;;;;1.55;0.70;;;;;;;9.58;95.05;93660.03;2082386;28;20229;-66
2023/11/05 12:11:00;;;;;;;1.63;0.73;;;;;;;9.61;95.18;93668.41;2083573;28;20193;-66
2023/11/05 12:12:02;;;;;;;3.10;0.70;;;;;;;9.64;95.45;93670.72;2081063;28;20190;-66
2023/11/05 12:13:04;;;;;;;3.30;1.20;;;;;;;9.74;96.13;93670.75;2080866;28;20320;-66
2023/11/05 12:14:06;;;;;;;5.57;2.70;;;;;;;10.08;95.64;93677.31;2081154;28;20189;-66
2023/11/05 12:15:12;;;;;;;1.23;0.77;;;;;;;10.30;94.15;93676.22;2080645;28;20609;-67
2023/11/05 12:16:16;;;;;;;2.67;1.00;;;;;;;10.08;96.03;93670.34;2079048;28;20672;-66